Terminal Aerodrome Forecast
Issued by NWS Binghamton, NY

Home | Current Version | Previous Version | Text Only | Print | Product List | Glossary On
Versions: 1 2 3 4 5 6 7 8 9 10 11 12 13 14 15 16 17 18 19
064
FTUS41 KBGM 262337
TAFBGM
TAF
KBGM 262337Z 2700/2724 18010KT P6SM OVC020
     FM270100 18010KT P6SM -SHRA OVC015
      TEMPO 2703/2707 3SM SHRA BR OVC008
     FM270700 25005KT 3SM BR OVC008
     FM271300 23008KT P6SM SCT040=

USA.gov is the U.S. government's official web portal to all federal, state and local government web resources and services.